Time;durP1;ratioP1;P1;durP2;ratioP2;P2;SDS_P1;SDS_P2;PMS_P1;PMS_P2;Temp;Humidity;BMP_temperature;BMP_pressure;BME280_temperature;BME280_humidity;BME280_pressure;Samples;Min_cycle;Max_cycle;Signal;HPM_P1;HPM_P2
2021/11/22 00:01:07;;;;;;;;;11.25;7.00;;;;;5.09;84.01;100833.91;5120614;27;45391;-73
2021/11/22 00:03:33;;;;;;;;;9.50;9.00;;;;;5.09;84.51;100842.59;5153701;27;46970;-73
2021/11/22 00:05:58;;;;;;;;;13.50;10.50;;;;;5.08;83.97;100846.06;5120145;27;45365;-72
2021/11/22 00:08:24;;;;;;;;;12.50;12.00;;;;;5.08;84.81;100845.22;5119275;27;45325;-73
2021/11/22 00:10:50;;;;;;;;;8.75;7.75;;;;;5.07;84.42;100840.91;5120509;27;45457;-71
2021/11/22 00:13:16;;;;;;;;;10.50;8.75;;;;;4.93;84.13;100822.81;5119581;27;46385;-73
2021/11/22 00:15:42;;;;;;;;;15.00;10.50;;;;;5.04;84.53;100844.38;5119573;27;45286;-73
2021/11/22 00:18:08;;;;;;;;;9.75;7.00;;;;;5.01;83.96;100844.44;5120059;27;45321;-74
2021/11/22 00:20:33;;;;;;;;;10.50;10.00;;;;;5.01;84.44;100849.66;5154098;27;45376;-73
2021/11/22 00:22:59;;;;;;;;;11.00;8.25;;;;;5.01;84.00;100854.00;5120334;27;45344;-73
2021/11/22 00:25:24;;;;;;;;;11.00;8.25;;;;;4.98;84.44;100847.06;5119931;27;45237;-73
2021/11/22 00:27:51;;;;;;;;;12.00;10.50;;;;;4.97;84.43;100851.44;5119450;27;45452;-74
2021/11/22 00:30:17;;;;;;;;;16.00;12.00;;;;;4.88;84.53;100833.31;5122562;27;45157;-73
2021/11/22 00:32:45;;;;;;;;;11.25;7.75;;;;;4.95;84.32;100849.72;5120114;27;47262;-73
2021/11/22 00:35:12;;;;;;;;;13.25;11.50;;;;;4.94;84.64;100853.22;5121163;27;45335;-73
2021/11/22 00:37:38;;;;;;;;;13.25;10.00;;;;;4.91;84.51;100853.25;5119898;27;45483;-73
2021/11/22 00:40:09;;;;;;;;;13.75;9.50;;;;;4.81;84.28;100842.94;5120549;27;45549;-73
2021/11/22 00:42:35;;;;;;;;;12.50;9.00;;;;;4.89;84.15;100853.28;5120273;27;45527;-72
2021/11/22 00:45:01;;;;;;;;;12.25;9.50;;;;;4.89;84.39;100862.84;5120668;27;45367;-75
2021/11/22 00:47:26;;;;;;;;;16.25;12.25;;;;;4.86;84.44;100860.25;5119563;27;45294;-73
2021/11/22 00:49:51;;;;;;;;;11.25;9.00;;;;;4.83;84.42;100851.59;5119370;27;45517;-74
2021/11/22 00:52:17;;;;;;;;;14.75;10.50;;;;;4.83;84.43;100862.03;5154398;27;47361;-72
2021/11/22 00:54:43;;;;;;;;;11.00;10.75;;;;;4.84;84.22;100865.50;5121498;27;45324;-73
2021/11/22 00:57:08;;;;;;;;;13.50;10.50;;;;;4.75;84.52;100858.66;5121499;27;45314;-74
2021/11/22 00:59:34;;;;;;;;;8.50;8.25;;;;;4.80;84.75;100877.72;5119904;27;45381;-73
2021/11/22 01:02:00;;;;;;;;;12.00;9.25;;;;;4.78;84.82;100873.41;5119862;27;45434;-73
2021/11/22 01:04:26;;;;;;;;;14.50;11.00;;;;;4.79;84.39;100883.78;5119693;27;45207;-72
2021/11/22 01:06:51;;;;;;;;;13.50;8.25;;;;;4.74;84.35;100875.16;5121206;27;45865;-73
2021/11/22 01:09:16;;;;;;;;;16.75;9.75;;;;;4.74;84.65;100883.00;5120916;27;45297;-74
2021/11/22 01:11:42;;;;;;;;;14.00;11.25;;;;;4.52;84.50;100843.25;5120546;27;45351;-73
2021/11/22 01:14:08;;;;;;;;;13.00;12.75;;;;;4.74;84.99;100884.72;5121235;27;45247;-72
2021/11/22 01:16:36;;;;;;;;;16.00;14.50;;;;;4.72;84.65;100887.34;5120353;27;45339;-73
2021/11/22 01:19:03;;;;;;;;;12.75;12.00;;;;;4.69;84.65;100884.78;5119403;27;45650;-72
2021/11/22 01:21:29;;;;;;;;;11.00;10.00;;;;;4.71;84.60;100893.44;5120658;27;46697;-72
2021/11/22 01:23:54;;;;;;;;;14.25;11.75;;;;;4.70;84.65;100890.84;5124938;27;45175;-73
2021/11/22 01:26:20;;;;;;;;;14.75;13.25;;;;;4.70;84.31;100896.06;5124701;27;45222;-72
2021/11/22 01:28:46;;;;;;;;;13.00;11.00;;;;;4.67;84.43;100895.22;5121469;27;45515;-73
2021/11/22 01:31:12;;;;;;;;;16.50;11.75;;;;;4.67;84.42;100896.97;5123002;27;45248;-74
2021/11/22 01:33:37;;;;;;;;;13.00;12.00;;;;;4.66;84.93;100892.63;5119413;27;46016;-73
2021/11/22 01:36:03;;;;;;;;;11.00;11.00;;;;;4.36;84.11;100851.25;5120565;27;45364;-72
2021/11/22 01:38:28;;;;;;;;;16.00;10.00;;;;;4.56;84.38;100893.59;5122354;27;45310;-75
2021/11/22 01:40:54;;;;;;;;;15.25;10.00;;;;;4.58;84.72;100900.50;5122452;27;45357;-73
2021/11/22 01:43:19;;;;;;;;;18.25;13.25;;;;;4.59;84.09;100904.00;5117942;27;45398;-73
2021/11/22 01:45:49;;;;;;;;;19.00;12.25;;;;;4.57;84.56;100901.41;5118487;27;45440;-73
2021/11/22 01:48:15;;;;;;;;;12.75;9.50;;;;;4.48;84.21;100893.69;5116877;27;45364;-73
2021/11/22 01:50:42;;;;;;;;;14.75;11.00;;;;;4.52;84.17;100900.56;5118044;27;45329;-72
2021/11/22 01:53:07;;;;;;;;;14.00;9.25;;;;;4.55;84.76;100903.16;5117653;27;45423;-73
2021/11/22 01:55:33;;;;;;;;;13.50;8.75;;;;;4.56;83.93;100910.09;5151616;27;45349;-73
2021/11/22 01:57:59;;;;;;;;;13.25;11.00;;;;;4.52;84.22;100917.09;5118869;27;45623;-73
2021/11/22 02:00:50;;;;;;;;;10.00;10.00;;;;;4.54;84.10;100919.66;5117542;27;45542;-73
2021/11/22 02:03:17;;;;;;;;;18.25;12.50;;;;;4.52;84.09;100918.81;5125903;27;45210;-72
2021/11/22 02:05:44;;;;;;;;;12.50;10.25;;;;;4.39;84.41;100898.09;5121832;27;45484;-73
2021/11/22 02:08:09;;;;;;;;;10.25;8.75;;;;;4.50;84.70;100920.56;5123538;27;45499;-72
2021/11/22 02:10:35;;;;;;;;;13.00;7.25;;;;;4.42;84.42;100914.56;5122100;27;45468;-73
2021/11/22 02:13:02;;;;;;;;;14.00;10.75;;;;;4.41;84.55;100907.63;5124084;27;45388;-74
2021/11/22 02:15:27;;;;;;;;;12.00;8.75;;;;;4.48;84.52;100928.41;5128562;27;45349;-74
2021/11/22 02:17:53;;;;;;;;;12.50;9.00;;;;;4.47;84.41;100925.81;5124731;27;45317;-74
2021/11/22 02:20:23;;;;;;;;;11.00;8.25;;;;;4.47;84.66;100929.28;5121929;27;45872;-73
2021/11/22 02:22:51;;;;;;;;;13.75;7.50;;;;;4.46;84.22;100931.91;5129720;27;45311;-74
2021/11/22 02:25:20;;;;;;;;;9.50;6.75;;;;;4.43;84.24;100935.41;5128557;27;45317;-74
2021/11/22 02:27:48;;;;;;;;;13.00;8.75;;;;;4.44;83.85;100937.13;5159965;27;45283;-73
2021/11/22 02:30:16;;;;;;;;;8.00;7.00;;;;;4.44;84.27;100936.25;5117930;27;46232;-72
2021/11/22 02:32:44;;;;;;;;;10.25;7.00;;;;;4.42;84.17;100936.28;5118718;27;45326;-72
2021/11/22 02:35:13;;;;;;;;;8.75;7.25;;;;;4.42;83.68;100938.91;5118263;27;45359;-71
2021/11/22 02:37:38;;;;;;;;;7.25;4.75;;;;;4.40;83.88;100940.66;5117880;27;45417;-73
2021/11/22 02:40:05;;;;;;;;;11.50;6.00;;;;;4.37;83.73;100941.53;5117502;27;46166;-73
2021/11/22 02:42:32;;;;;;;;;11.75;9.00;;;;;4.36;84.04;100942.41;5117125;27;45379;-72
2021/11/22 02:44:59;;;;;;;;;9.75;9.25;;;;;4.34;84.24;100940.72;5115438;27;45410;-72
2021/11/22 02:47:25;;;;;;;;;14.25;8.00;;;;;4.33;83.89;100936.38;5117036;27;45575;-73
2021/11/22 02:49:51;;;;;;;;;13.25;9.75;;;;;4.30;84.05;100929.44;5116652;27;46465;-73
2021/11/22 02:52:17;;;;;;;;;11.25;9.00;;;;;4.27;84.35;100928.63;5116907;27;45329;-73
2021/11/22 02:54:42;;;;;;;;;12.75;9.75;;;;;3.94;84.18;100877.66;5118305;27;45251;-73
2021/11/22 02:57:09;;;;;;;;;12.00;9.25;;;;;4.29;84.02;100939.88;5119892;27;45492;-72
2021/11/22 02:59:39;;;;;;;;;17.75;11.00;;;;;4.28;84.02;100941.59;5115411;27;46259;-73
2021/11/22 03:02:05;;;;;;;;;15.00;10.25;;;;;4.18;84.29;100933.00;5116474;27;45401;-73
2021/11/22 03:04:32;;;;;;;;;11.25;9.50;;;;;4.19;84.25;100936.47;5116327;27;45291;-73
2021/11/22 03:06:58;;;;;;;;;11.25;7.75;;;;;3.85;84.30;100884.69;5116911;27;45477;-72
2021/11/22 03:09:23;;;;;;;;;11.75;11.75;;;;;4.15;84.14;100945.19;5117221;27;46178;-74
2021/11/22 03:11:48;;;;;;;;;11.25;10.00;;;;;4.19;83.82;100947.75;5151147;27;45323;-73
2021/11/22 03:14:14;;;;;;;;;9.25;8.75;;;;;4.18;84.10;100951.22;5116913;27;45313;-74
2021/11/22 03:16:39;;;;;;;;;14.50;9.25;;;;;4.18;83.82;100958.19;5118155;27;45524;-74
2021/11/22 03:19:04;;;;;;;;;12.00;9.25;;;;;4.15;84.12;100950.41;5117840;27;46381;-73
2021/11/22 03:21:30;;;;;;;;;17.75;10.25;;;;;4.15;83.91;100961.66;5118769;27;45255;-73
2021/11/22 03:23:55;;;;;;;;;11.50;9.25;;;;;4.10;84.29;100955.63;5117746;27;45282;-73
2021/11/22 03:26:20;;;;;;;;;11.25;9.25;;;;;4.13;84.17;100958.19;5116767;27;45365;-72
2021/11/22 03:28:46;;;;;;;;;11.25;9.25;;;;;4.12;84.53;100964.28;5115491;27;45519;-72
2021/11/22 03:31:11;;;;;;;;;13.00;10.00;;;;;4.07;84.59;100953.91;5116705;27;45279;-72
2021/11/22 03:33:37;;;;;;;;;14.75;10.00;;;;;4.08;84.60;100959.97;5116747;27;45796;-73
2021/11/22 03:36:03;;;;;;;;;10.50;10.00;;;;;3.90;84.25;100938.41;5118158;27;45550;-75
2021/11/22 03:38:30;;;;;;;;;10.75;9.50;;;;;4.08;84.72;100968.66;5151324;27;46382;-73
2021/11/22 03:40:57;;;;;;;;;13.75;12.00;;;;;4.06;84.80;100972.13;5119104;27;45239;-74
2021/11/22 03:43:28;;;;;;;;;15.00;10.50;;;;;4.06;84.46;100972.13;5122891;27;45344;-73
2021/11/22 03:45:53;;;;;;;;;10.50;8.00;;;;;4.06;84.71;100979.94;5125236;27;45216;-74
2021/11/22 03:48:19;;;;;;;;;14.25;11.00;;;;;4.05;84.48;100973.00;5127179;27;45509;-74
2021/11/22 03:50:44;;;;;;;;;15.50;10.00;;;;;4.01;84.81;100973.91;5122709;27;45169;-74
2021/11/22 03:53:10;;;;;;;;;12.50;9.75;;;;;4.04;84.36;100981.69;5122227;27;45380;-73
2021/11/22 03:55:35;;;;;;;;;14.25;11.00;;;;;4.03;84.15;100982.56;5155102;27;45585;-73
2021/11/22 03:58:01;;;;;;;;;19.50;12.75;;;;;4.01;84.68;100984.31;5121201;27;46173;-73
2021/11/22 04:00:27;;;;;;;;;13.00;9.50;;;;;4.00;84.24;100986.06;5124245;27;45387;-75
2021/11/22 04:02:53;;;;;;;;;8.00;8.00;;;;;3.99;84.51;100999.97;5123891;27;45566;-75
2021/11/22 04:05:19;;;;;;;;;11.25;10.50;;;;;4.00;84.56;100993.88;5123195;27;45472;-74
2021/11/22 04:07:44;;;;;;;;;13.75;11.50;;;;;3.98;84.94;100997.34;5122255;27;46002;-73
2021/11/22 04:10:09;;;;;;;;;17.75;13.00;;;;;3.88;84.54;100981.81;5121624;27;45367;-74
2021/11/22 04:12:35;;;;;;;;;16.50;14.00;;;;;3.93;84.54;101008.66;5120758;27;45541;-73
2021/11/22 04:15:00;;;;;;;;;13.75;10.25;;;;;3.94;84.40;101010.38;5121224;27;45631;-74
2021/11/22 04:17:26;;;;;;;;;24.25;11.25;;;;;3.92;85.00;101006.09;5119072;27;45750;-73
2021/11/22 04:19:51;;;;;;;;;18.00;12.00;;;;;3.87;84.41;101005.25;5119077;27;45332;-74
2021/11/22 04:22:17;;;;;;;;;16.75;11.00;;;;;3.92;84.59;101019.09;5119171;27;45429;-72
2021/11/22 04:24:42;;;;;;;;;23.75;14.25;;;;;3.87;84.56;101019.09;5119736;27;45297;-73
2021/11/22 04:27:10;;;;;;;;;20.25;15.75;;;;;3.91;84.30;101033.84;5118960;27;47667;-73
2021/11/22 04:29:36;;;;;;;;;17.00;12.25;;;;;3.85;84.49;101017.41;5119819;27;45381;-73
2021/11/22 04:32:01;;;;;;;;;13.25;11.75;;;;;3.88;84.23;101033.84;5120444;27;45222;-73
2021/11/22 04:34:27;;;;;;;;;17.50;12.00;;;;;3.87;84.44;101042.53;5120387;27;45517;-74
2021/11/22 04:36:52;;;;;;;;;16.50;13.00;;;;;3.86;85.00;101034.75;5119092;27;46034;-74
2021/11/22 04:39:18;;;;;;;;;10.75;9.00;;;;;3.88;84.96;101046.00;5119769;27;45321;-73
2021/11/22 04:41:44;;;;;;;;;16.25;13.25;;;;;3.86;84.56;101038.19;5120187;27;45446;-72
2021/11/22 04:44:09;;;;;;;;;19.75;11.50;;;;;3.86;84.95;101045.16;5119318;27;45617;-72
2021/11/22 04:46:35;;;;;;;;;13.25;12.00;;;;;3.84;84.73;101049.50;5152002;27;46150;-74
2021/11/22 04:49:00;;;;;;;;;17.50;13.25;;;;;3.81;84.61;101052.97;5118840;27;45348;-73
2021/11/22 04:51:26;;;;;;;;;18.25;14.25;;;;;3.84;84.36;101062.53;5119273;27;45408;-73
2021/11/22 04:53:51;;;;;;;;;23.00;14.25;;;;;3.80;84.69;101054.72;5122344;27;45523;-73
2021/11/22 04:56:17;;;;;;;;;17.50;13.25;;;;;3.82;84.63;101062.50;5119698;27;46119;-73
2021/11/22 04:58:42;;;;;;;;;10.25;8.75;;;;;3.80;84.56;101061.66;5119032;27;45373;-74
2021/11/22 05:01:08;;;;;;;;;17.25;13.75;;;;;3.80;85.18;101061.66;5155096;27;45582;-73
2021/11/22 05:03:33;;;;;;;;;16.50;13.25;;;;;3.79;84.55;101068.59;5119684;27;45319;-73
2021/11/22 05:05:59;;;;;;;;;18.00;13.25;;;;;3.78;84.64;101066.00;5120481;27;45318;-73
2021/11/22 05:08:24;;;;;;;;;19.25;15.75;;;;;3.78;84.25;101066.00;5120655;27;45177;-74
2021/11/22 05:10:50;;;;;;;;;13.75;12.25;;;;;3.78;85.18;101074.69;5123495;27;45457;-74
2021/11/22 05:13:18;;;;;;;;;18.00;16.50;;;;;3.79;84.84;101081.63;5119142;27;45189;-72
2021/11/22 05:15:45;;;;;;;;;16.25;13.00;;;;;3.78;85.13;101082.50;5120950;27;46692;-74
2021/11/22 05:18:12;;;;;;;;;22.25;16.50;;;;;3.78;84.94;101084.22;5123326;27;45380;-74
2021/11/22 05:20:40;;;;;;;;;17.00;15.50;;;;;3.69;85.26;101073.84;5123043;27;45313;-74
2021/11/22 05:23:06;;;;;;;;;19.00;14.75;;;;;3.76;84.94;101091.16;5121557;27;45244;-74
2021/11/22 05:25:32;;;;;;;;;22.50;17.00;;;;;3.76;85.26;101093.75;5121251;27;45250;-74
2021/11/22 05:27:58;;;;;;;;;16.25;16.25;;;;;3.71;85.30;101093.78;5119058;27;45295;-73
2021/11/22 05:30:26;;;;;;;;;26.75;19.75;;;;;3.72;84.89;101087.72;5118525;27;45661;-74
2021/11/22 05:32:52;;;;;;;;;19.00;15.00;;;;;3.75;84.97;101097.25;5118826;27;45448;-73
2021/11/22 05:35:18;;;;;;;;;18.00;17.75;;;;;3.80;85.38;101117.19;5118494;27;46406;-74
2021/11/22 05:37:44;;;;;;;;;21.25;16.25;;;;;3.88;85.06;101116.28;5118315;27;45303;-72
2021/11/22 05:40:11;;;;;;;;;20.00;14.00;;;;;3.92;84.91;101111.03;5119107;27;45264;-73
2021/11/22 05:42:36;;;;;;;;;19.25;14.50;;;;;4.02;84.66;101111.00;5120867;27;45558;-73
2021/11/22 05:45:04;;;;;;;;;19.75;17.00;;;;;4.12;84.72;101119.66;5118146;27;45643;-75
2021/11/22 05:47:29;;;;;;;;;18.00;16.00;;;;;4.19;84.84;101119.59;5118131;27;45391;-74
2021/11/22 05:50:03;;;;;;;;;16.75;15.00;;;;;4.17;83.98;101107.47;5116765;27;45266;-73
2021/11/22 05:52:28;;;;;;;;;18.50;14.00;;;;;4.28;83.56;101113.50;5118771;27;45517;-73
2021/11/22 05:54:55;;;;;;;;;16.00;13.25;;;;;4.34;83.58;101113.44;5117819;27;45443;-74
2021/11/22 05:57:24;;;;;;;;;19.50;16.75;;;;;4.31;83.49;101104.81;5117764;27;45434;-73
2021/11/22 05:59:51;;;;;;;;;18.00;15.75;;;;;4.41;83.27;101119.50;5118078;27;45403;-74
2021/11/22 06:02:17;;;;;;;;;22.25;15.50;;;;;4.40;82.86;101123.00;5118360;27;45587;-73
2021/11/22 06:04:42;;;;;;;;;26.50;19.25;;;;;4.45;82.79;101123.81;5119272;27;46381;-74
2021/11/22 06:07:08;;;;;;;;;23.25;21.25;;;;;4.42;82.77;101123.84;5119179;27;45247;-75
2021/11/22 06:09:35;;;;;;;;;24.50;21.00;;;;;4.48;82.80;101129.00;5119748;27;45359;-74
2021/11/22 06:12:00;;;;;;;;;23.50;22.00;;;;;4.53;82.70;101131.56;5120541;27;45337;-74
2021/11/22 06:14:25;;;;;;;;;25.00;22.25;;;;;4.56;83.21;101144.59;5118380;27;46246;-73
2021/11/22 06:16:51;;;;;;;;;29.75;20.00;;;;;4.56;82.35;101148.94;5118374;27;45276;-74
2021/11/22 06:19:17;;;;;;;;;28.25;23.75;;;;;4.56;82.43;101155.00;5115975;27;45339;-73
2021/11/22 06:21:42;;;;;;;;;29.25;24.25;;;;;4.55;82.73;101160.25;5117817;27;46030;-73
2021/11/22 06:24:07;;;;;;;;;31.00;21.00;;;;;4.53;82.85;101149.81;5117303;27;45465;-74
2021/11/22 06:26:33;;;;;;;;;27.50;25.50;;;;;4.55;82.68;101165.44;5116090;27;45524;-74
2021/11/22 06:28:59;;;;;;;;;32.75;28.25;;;;;4.50;82.81;101171.56;5118313;27;45334;-73
2021/11/22 06:31:25;;;;;;;;;25.00;21.75;;;;;4.51;83.17;101165.47;5117879;27;45273;-73
2021/11/22 06:33:50;;;;;;;;;33.50;30.50;;;;;4.60;82.75;101184.53;5117600;27;45996;-75
2021/11/22 06:36:19;;;;;;;;;30.00;28.25;;;;;4.57;83.29;101181.94;5117721;27;45345;-74
2021/11/22 06:38:44;;;;;;;;;36.75;32.00;;;;;4.62;82.51;101193.19;5117407;27;45460;-74
2021/11/22 06:41:09;;;;;;;;;34.25;27.00;;;;;4.63;82.33;101197.53;5116481;27;45471;-74
2021/11/22 06:43:35;;;;;;;;;29.50;25.75;;;;;4.56;82.79;101185.41;5117447;27;45345;-74
2021/11/22 06:46:00;;;;;;;;;27.00;21.50;;;;;4.62;82.79;101201.03;5117927;27;45316;-75
2021/11/22 06:48:26;;;;;;;;;41.75;31.00;;;;;4.50;82.86;101186.31;5120758;27;45530;-74
2021/11/22 06:50:51;;;;;;;;;34.00;29.75;;;;;4.73;82.25;101208.75;5121581;27;45423;-75
2021/11/22 06:53:21;;;;;;;;;36.25;30.75;;;;;4.78;82.51;101220.91;5119928;27;46184;-74
2021/11/22 06:55:47;;;;;;;;;25.25;22.00;;;;;4.83;82.22;101223.50;5115746;27;45425;-73
2021/11/22 06:58:12;;;;;;;;;26.00;24.00;;;;;4.89;82.34;101214.75;5117203;27;45402;-73
2021/11/22 07:00:38;;;;;;;;;22.00;21.00;;;;;4.96;82.01;101222.53;5115319;27;45273;-75
2021/11/22 07:03:03;;;;;;;;;30.25;26.00;;;;;4.98;81.27;101225.13;5116726;27;46350;-74
2021/11/22 07:05:29;;;;;;;;;27.50;23.00;;;;;4.97;81.07;101229.50;5115138;27;45376;-74
2021/11/22 07:07:54;;;;;;;;;31.75;22.00;;;;;4.96;81.60;101227.75;5117538;27;45291;-75
2021/11/22 07:10:21;;;;;;;;;24.25;20.25;;;;;4.98;81.07;101230.34;5115935;27;45334;-73
2021/11/22 07:12:48;;;;;;;;;27.50;26.25;;;;;5.04;80.80;101245.09;5116251;27;45371;-74
2021/11/22 07:15:20;;;;;;;;;30.75;22.00;;;;;5.08;81.18;101245.06;5118037;27;45252;-74
2021/11/22 07:17:46;;;;;;;;;29.50;23.75;;;;;5.10;80.94;101243.28;5120070;27;45306;-73
2021/11/22 07:20:12;;;;;;;;;26.00;22.50;;;;;5.18;81.02;101244.97;5120774;27;45321;-74
2021/11/22 07:22:37;;;;;;;;;20.75;19.75;;;;;5.21;80.09;101248.44;5120824;27;46025;-73
2021/11/22 07:25:04;;;;;;;;;24.50;20.00;;;;;5.27;80.47;101250.13;5121459;27;45353;-73
2021/11/22 07:27:29;;;;;;;;;27.25;21.25;;;;;5.29;80.21;101244.91;5121079;27;45237;-74
2021/11/22 07:29:56;;;;;;;;;23.00;19.00;;;;;5.33;79.98;101251.84;5121681;27;45248;-74
2021/11/22 07:32:23;;;;;;;;;22.25;20.50;;;;;5.32;79.41;101240.56;5120333;27;45615;-75
2021/11/22 07:34:48;;;;;;;;;20.50;20.50;;;;;5.44;79.85;101257.84;5120589;27;45446;-74
2021/11/22 07:37:14;;;;;;;;;25.75;22.50;;;;;5.48;79.98;101271.75;5153919;27;45394;-76
2021/11/22 07:39:39;;;;;;;;;21.25;20.00;;;;;5.50;79.15;101270.84;5122070;27;45477;-73
2021/11/22 07:42:05;;;;;;;;;24.50;21.25;;;;;5.53;79.13;101281.25;5121939;27;45376;-74
2021/11/22 07:44:30;;;;;;;;;21.50;19.25;;;;;5.55;78.94;101278.66;5120486;27;45435;-74
2021/11/22 07:46:58;;;;;;;;;22.75;19.25;;;;;5.57;78.70;101282.09;5120302;27;45364;-73
2021/11/22 07:49:24;;;;;;;;;23.50;16.00;;;;;5.65;78.02;101298.56;5121160;27;44775;-74
2021/11/22 07:51:50;;;;;;;;;17.50;15.25;;;;;5.72;78.54;101290.69;5119408;27;47904;-74
2021/11/22 07:54:15;;;;;;;;;18.75;17.50;;;;;5.75;77.65;101306.31;5122005;27;45461;-75
2021/11/22 07:56:42;;;;;;;;;12.25;11.25;;;;;5.75;77.42;101306.31;5121206;27;45366;-73
2021/11/22 07:59:08;;;;;;;;;19.25;15.25;;;;;5.74;77.33;101307.19;5120018;27;45220;-73
2021/11/22 08:01:37;;;;;;;;;20.50;17.75;;;;;5.79;77.60;101311.50;5120252;27;45250;-74
2021/11/22 08:04:02;;;;;;;;;16.50;14.75;;;;;5.86;77.30;101314.94;5156648;27;45309;-76
2021/11/22 08:06:28;;;;;;;;;17.50;15.25;;;;;5.92;77.62;101314.88;5120875;27;45412;-75
2021/11/22 08:08:54;;;;;;;;;16.25;15.00;;;;;5.94;76.27;101318.34;5121628;27;45256;-74
2021/11/22 08:13:53;;;;;;;;;11.75;10.75;;;;;6.02;76.05;101322.66;5124796;27;45480;-74
2021/11/22 08:16:20;;;;;;;;;17.25;16.00;;;;;5.99;75.66;101319.16;5125102;27;45194;-74
2021/11/22 08:18:46;;;;;;;;;16.75;16.00;;;;;6.02;76.33;101326.16;5120263;27;45666;-76
2021/11/22 08:21:12;;;;;;;;;20.00;17.25;;;;;6.09;76.39;101329.56;5120455;27;47229;-73
2021/11/22 08:23:38;;;;;;;;;14.25;13.25;;;;;6.16;75.92;101332.97;5119437;27;45164;-75
2021/11/22 08:26:05;;;;;;;;;23.50;14.50;;;;;6.16;75.89;101332.97;5120081;27;45370;-75
2021/11/22 08:28:30;;;;;;;;;14.25;14.25;;;;;6.25;75.42;101327.66;5121725;27;45615;-74
2021/11/22 08:30:56;;;;;;;;;15.25;14.00;;;;;6.38;75.77;101344.09;5119682;27;45931;-76
2021/11/22 08:33:22;;;;;;;;;18.25;15.25;;;;;6.48;74.37;101343.13;5120752;27;45275;-76
2021/11/22 08:35:48;;;;;;;;;19.75;16.75;;;;;6.54;74.67;101345.66;5121006;27;45371;-75
2021/11/22 08:38:14;;;;;;;;;15.75;15.50;;;;;6.61;74.31;101342.97;5120882;27;45414;-75
2021/11/22 08:40:41;;;;;;;;;16.25;15.50;;;;;6.70;74.24;101333.25;5117758;27;48365;-75
2021/11/22 08:43:13;;;;;;;;;16.75;14.25;;;;;6.78;73.17;101346.25;5119589;27;45232;-77
2021/11/22 08:45:40;;;;;;;;;17.50;12.00;;;;;6.76;73.74;101336.69;5119401;27;45302;-74
2021/11/22 08:48:06;;;;;;;;;17.00;16.00;;;;;6.76;73.83;101357.59;5119569;27;45225;-75
2021/11/22 08:50:32;;;;;;;;;15.00;12.50;;;;;6.72;73.46;101346.31;5120295;27;45361;-75
2021/11/22 08:52:57;;;;;;;;;17.50;13.25;;;;;6.68;72.41;101363.78;5121136;27;45211;-75
2021/11/22 08:55:23;;;;;;;;;14.00;13.75;;;;;6.68;72.27;101355.94;5120929;27;45550;-75
2021/11/22 08:57:49;;;;;;;;;19.50;14.00;;;;;6.72;71.96;101356.78;5120754;27;45514;-74
2021/11/22 09:00:20;;;;;;;;;15.75;12.75;;;;;6.56;72.37;101314.25;5119201;27;45291;-75
2021/11/22 09:02:45;;;;;;;;;14.50;14.00;;;;;6.97;72.37;101370.44;5117950;27;45818;-75
2021/11/22 09:05:10;;;;;;;;;11.50;11.50;;;;;6.82;71.57;101334.88;5119585;27;45360;-74
2021/11/22 09:07:36;;;;;;;;;11.50;8.50;;;;;7.00;71.57;101372.13;5117551;27;45414;-73
2021/11/22 09:10:03;;;;;;;;;12.00;9.25;;;;;6.98;71.43;101366.94;5119476;27;46011;-73
2021/11/22 09:12:29;;;;;;;;;15.75;14.00;;;;;6.96;69.36;101379.19;5119708;27;45366;-73
2021/11/22 09:14:56;;;;;;;;;8.50;8.00;;;;;6.99;70.92;101383.47;5120613;27;45370;-74
2021/11/22 09:17:21;;;;;;;;;14.25;11.00;;;;;6.95;70.55;101372.22;5120368;27;45883;-74
2021/11/22 09:19:47;;;;;;;;;13.75;10.75;;;;;6.97;70.90;101385.25;5152006;27;48271;-74
2021/11/22 09:22:13;;;;;;;;;15.75;11.00;;;;;7.01;70.25;101377.38;5118886;27;45518;-73
2021/11/22 09:24:39;;;;;;;;;11.75;9.25;;;;;7.08;70.91;101392.97;5118038;27;45344;-74
2021/11/22 09:27:06;;;;;;;;;11.50;10.00;;;;;7.13;69.30;101399.03;5118307;27;45592;-74
2021/11/22 09:29:32;;;;;;;;;12.75;10.75;;;;;7.23;70.10;101399.75;5118033;27;45475;-73
2021/11/22 09:31:57;;;;;;;;;14.00;10.00;;;;;7.23;68.05;101395.41;5116893;27;45476;-74
2021/11/22 09:34:23;;;;;;;;;10.25;9.75;;;;;7.26;66.20;101404.94;5116664;27;45305;-74
2021/11/22 09:36:48;;;;;;;;;13.25;8.25;;;;;7.29;67.64;101404.91;5118106;27;45261;-74
2021/11/22 09:39:17;;;;;;;;;11.75;11.50;;;;;7.36;67.52;101411.78;5117219;27;47943;-74
2021/11/22 09:41:44;;;;;;;;;11.00;9.50;;;;;7.36;66.37;101414.41;5119707;27;45317;-76
2021/11/22 09:44:10;;;;;;;;;8.00;7.50;;;;;7.37;66.89;101410.06;5118385;27;45428;-73
2021/11/22 09:46:36;;;;;;;;;9.25;9.25;;;;;7.29;67.62;101400.56;5118417;27;45504;-75
2021/11/22 09:49:03;;;;;;;;;11.00;10.00;;;;;7.37;67.08;101421.38;5118312;27;45282;-74
2021/11/22 09:51:29;;;;;;;;;12.25;10.25;;;;;7.33;66.13;101429.28;5117733;27;45168;-75
2021/11/22 09:53:55;;;;;;;;;17.00;14.25;;;;;7.32;68.31;101425.78;5118083;27;45264;-73
2021/11/22 09:56:20;;;;;;;;;16.50;11.00;;;;;7.34;66.90;101437.13;5118010;27;45478;-75
2021/11/22 09:58:46;;;;;;;;;24.50;20.25;;;;;7.20;68.66;101411.13;5117608;27;45308;-75
2021/11/22 10:01:15;;;;;;;;;8.75;7.00;;;;;7.38;67.04;101437.97;5117338;27;45483;-75
2021/11/22 10:03:41;;;;;;;;;14.50;11.00;;;;;7.34;67.98;101431.03;5117529;27;45423;-76
2021/11/22 10:06:07;;;;;;;;;14.50;12.50;;;;;7.43;66.87;101438.75;5118447;27;45391;-76
2021/11/22 10:08:42;;;;;;;;;16.75;13.00;;;;;7.44;67.53;101441.38;5116568;27;45397;-75
2021/11/22 10:11:09;;;;;;;;;19.75;13.25;;;;;7.55;67.90;101448.22;5116923;27;45396;-74
2021/11/22 10:13:36;;;;;;;;;31.00;27.75;;;;;7.73;67.79;101442.72;5117275;27;45359;-74
2021/11/22 10:16:07;;;;;;;;;11.25;9.25;;;;;7.80;64.65;101450.47;5118833;27;45400;-74
2021/11/22 10:18:40;;;;;;;;;9.25;7.75;;;;;7.77;64.33;101450.53;5115688;27;48141;-74
2021/11/22 10:21:08;;;;;;;;;9.25;7.00;;;;;7.79;64.05;101454.84;5117193;27;45307;-75
2021/11/22 10:23:36;;;;;;;;;11.00;9.50;;;;;7.75;64.65;101463.63;5117221;27;45313;-74
2021/11/22 10:26:02;;;;;;;;;12.50;11.50;;;;;7.77;64.50;101456.63;5117559;27;45275;-74
2021/11/22 10:28:36;;;;;;;;;15.50;13.00;;;;;7.82;64.16;101469.66;5118013;27;46480;-75
2021/11/22 10:31:05;;;;;;;;;13.75;8.00;;;;;7.77;63.25;101464.47;5117596;27;45259;-74
2021/11/22 10:33:35;;;;;;;;;11.00;8.50;;;;;7.73;64.15;101455.81;5117583;27;45291;-75
2021/11/22 10:36:05;;;;;;;;;15.75;10.50;;;;;7.58;63.66;101438.53;5117454;27;45317;-75
2021/11/22 10:38:35;;;;;;;;;10.50;10.25;;;;;7.79;65.13;101464.47;5117273;27;45368;-74
2021/11/22 10:41:10;;;;;;;;;11.00;10.25;;;;;7.84;63.96;101471.34;5118759;27;45397;-75
2021/11/22 10:43:38;;;;;;;;;11.50;9.25;;;;;7.84;62.88;101471.34;5118203;27;45392;-77
2021/11/22 10:46:07;;;;;;;;;14.75;11.25;;;;;7.70;62.94;101466.34;5118484;27;45345;-76
2021/11/22 10:48:33;;;;;;;;;8.50;7.00;;;;;7.64;63.81;101445.47;5119116;27;45332;-73
2021/11/22 10:51:12;;;;;;;;;15.25;14.50;;;;;7.88;63.32;101477.44;5121109;27;45275;-76
2021/11/22 10:53:38;;;;;;;;;13.50;13.00;;;;;8.00;63.23;101476.41;5125376;27;45281;-74
2021/11/22 10:56:08;;;;;;;;;11.00;10.75;;;;;8.12;62.99;101464.84;5123106;27;45441;-74
2021/11/22 10:58:47;;;;;;;;;9.00;8.25;;;;;8.14;61.99;101466.56;5125242;27;46100;-74
2021/11/22 11:01:29;;;;;;;;;13.00;7.00;;;;;8.13;61.91;101479.69;5125567;27;45255;-76
2021/11/22 11:04:04;;;;;;;;;12.75;9.75;;;;;8.09;62.56;101472.75;5122365;27;45430;-75
2021/11/22 11:06:40;;;;;;;;;16.50;12.00;;;;;8.11;63.29;101481.44;5121404;27;45407;-75
2021/11/22 11:09:27;;;;;;;;;12.75;11.00;;;;;8.23;61.50;101481.25;5121618;27;45655;-75
2021/11/22 11:12:01;;;;;;;;;16.00;14.50;;;;;8.30;62.46;101472.41;5121542;27;45385;-74
2021/11/22 11:14:29;;;;;;;;;9.00;7.25;;;;;8.30;61.18;101467.16;5121645;27;45421;-75
2021/11/22 11:17:07;;;;;;;;;13.75;11.00;;;;;8.38;62.27;101476.66;5121739;27;45503;-74
2021/11/22 11:19:32;;;;;;;;;16.25;13.75;;;;;8.47;60.69;101474.75;5123235;27;46248;-75